createdAt,value
2022-11-05T00:00:41.855Z,24.00
2022-11-05T00:03:30.439Z,23.30
2022-11-05T00:06:17.597Z,22.10
2022-11-05T00:09:05.119Z,23.70
2022-11-05T00:11:52.540Z,22.60
2022-11-05T00:14:39.434Z,22.40
2022-11-05T00:17:07.845Z,22.00
2022-11-05T00:19:36.365Z,22.70
2022-11-05T00:22:23.283Z,22.80
2022-11-05T00:25:10.252Z,24.60
2022-11-05T00:27:38.525Z,24.40
2022-11-05T00:30:07.577Z,25.20
2022-11-05T00:32:35.849Z,25.00
2022-11-05T00:35:05.010Z,25.50
2022-11-05T00:37:33.364Z,26.20
2022-11-05T00:40:02.188Z,23.20
2022-11-05T00:42:49.290Z,27.30
2022-11-05T00:45:17.701Z,26.70
2022-11-05T00:48:05.029Z,27.00
2022-11-05T00:50:33.750Z,27.00
2022-11-05T00:53:03.165Z,24.50
2022-11-05T00:55:37.661Z,26.10
2022-11-05T00:58:10.417Z,28.40
2022-11-05T01:00:40.501Z,29.30
2022-11-05T01:03:10.490Z,30.00
2022-11-05T01:05:46.881Z,27.50
2022-11-05T01:08:16.627Z,26.60
2022-11-05T01:10:46.508Z,27.40
2022-11-05T01:13:17.518Z,26.30
2022-11-05T01:15:47.197Z,25.60
2022-11-05T01:18:15.442Z,25.60
2022-11-05T01:20:44.287Z,26.60
2022-11-05T01:23:13.885Z,25.20
2022-11-05T01:25:43.168Z,25.80
2022-11-05T01:28:12.210Z,25.00
2022-11-05T01:30:40.470Z,25.50
2022-11-05T01:33:09.075Z,23.30
2022-11-05T01:35:39.515Z,20.30
2022-11-05T01:38:07.746Z,16.80
2022-11-05T01:40:36.171Z,23.60
2022-11-05T01:43:06.065Z,22.30
2022-11-05T01:45:35.146Z,22.00
2022-11-05T01:48:07.101Z,22.30
2022-11-05T01:50:53.857Z,21.00
2022-11-05T01:53:25.145Z,21.10
2022-11-05T01:56:11.735Z,20.00
2022-11-05T01:58:44.977Z,18.10
2022-11-05T02:01:13.332Z,19.40
2022-11-05T02:03:42.474Z,20.20
2022-11-05T02:06:11.457Z,20.20
2022-11-05T02:08:51.833Z,21.90
2022-11-05T02:11:20.497Z,19.30
2022-11-05T02:13:49.624Z,21.30
2022-11-05T02:16:17.943Z,19.50
2022-11-05T02:18:46.192Z,22.10
2022-11-05T02:21:14.503Z,20.20
2022-11-05T02:23:42.729Z,21.30
2022-11-05T02:26:30.120Z,22.10
2022-11-05T02:29:17.064Z,22.80
2022-11-05T02:32:08.484Z,23.70
2022-11-05T02:34:51.929Z,23.70
2022-11-05T02:37:26.488Z,23.20
2022-11-05T02:39:59.744Z,22.80
2022-11-05T02:42:27.971Z,23.30
2022-11-05T02:44:59.459Z,23.50
2022-11-05T02:47:36.531Z,23.10
2022-11-05T02:50:07.876Z,23.10
2022-11-05T02:52:55.037Z,22.50
2022-11-05T02:55:27.888Z,22.50
2022-11-05T02:57:56.277Z,22.40
2022-11-05T03:00:43.434Z,22.50
2022-11-05T03:03:16.462Z,21.10
2022-11-05T03:05:51.309Z,22.50
2022-11-05T03:08:26.334Z,22.50
2022-11-05T03:11:00.217Z,21.40
2022-11-05T03:13:42.468Z,19.70
2022-11-05T03:16:34.224Z,20.70
2022-11-05T03:19:07.041Z,20.10
2022-11-05T03:21:58.664Z,19.10
2022-11-05T03:24:28.705Z,18.80
2022-11-05T03:26:59.051Z,19.20
2022-11-05T03:29:36.299Z,18.20
2022-11-05T03:32:05.617Z,18.90
2022-11-05T03:34:43.062Z,19.70
2022-11-05T03:37:12.238Z,18.50
2022-11-05T03:39:45.946Z,18.10
2022-11-05T03:42:16.072Z,18.60
2022-11-05T03:44:53.084Z,17.70
2022-11-05T03:47:26.681Z,18.50
2022-11-05T03:49:57.264Z,16.90
2022-11-05T03:52:32.374Z,17.10
2022-11-05T03:55:00.795Z,16.90
2022-11-05T03:57:34.780Z,16.60
2022-11-05T04:00:06.535Z,16.70
2022-11-05T04:02:34.945Z,14.80
2022-11-05T04:05:03.470Z,15.40
2022-11-05T04:07:50.590Z,15.50
2022-11-05T04:10:37.637Z,15.40
2022-11-05T04:13:24.427Z,14.30
2022-11-05T04:16:12.460Z,14.70
2022-11-05T04:18:40.871Z,15.20
2022-11-05T04:21:28.921Z,15.00
2022-11-05T04:24:10.026Z,14.80
2022-11-05T04:26:39.655Z,14.90
2022-11-05T04:29:27.002Z,14.40
2022-11-05T04:31:55.709Z,14.40
2022-11-05T04:34:24.070Z,14.30
2022-11-05T04:36:53.472Z,13.30
2022-11-05T04:39:21.983Z,13.30
2022-11-05T04:41:50.339Z,12.50
2022-11-05T04:44:18.830Z,13.60
2022-11-05T04:46:47.162Z,14.10
2022-11-05T04:49:15.426Z,12.20
2022-11-05T04:51:43.888Z,12.90
2022-11-05T04:54:12.594Z,13.20
2022-11-05T04:56:41.140Z,12.90
2022-11-05T04:59:09.464Z,12.60
2022-11-05T05:01:38.005Z,10.90
2022-11-05T05:04:06.372Z,12.10
2022-11-05T05:06:34.616Z,11.80
2022-11-05T05:09:02.942Z,11.40
2022-11-05T05:11:31.130Z,11.90
2022-11-05T05:13:59.440Z,10.90
2022-11-05T05:16:28.131Z,11.00
2022-11-05T05:18:56.469Z,11.70
2022-11-05T05:21:40.090Z,11.10
2022-11-05T05:24:09.579Z,10.30
2022-11-05T05:26:38.981Z,10.30
2022-11-05T05:29:07.771Z,10.40
2022-11-05T05:31:36.204Z,10.30
2022-11-05T05:34:05.575Z,10.80
2022-11-05T05:36:34.099Z,10.20
2022-11-05T05:39:05.191Z,9.20
2022-11-05T05:41:33.705Z,9.60
2022-11-05T05:44:02.098Z,9.00
2022-11-05T05:46:30.575Z,7.80
2022-11-05T05:48:58.948Z,6.70
2022-11-05T05:51:27.225Z,6.30
2022-11-05T05:53:55.657Z,5.20
2022-11-05T05:56:23.961Z,4.90
2022-11-05T05:58:52.612Z,4.20
2022-11-05T06:01:21.038Z,4.20
2022-11-05T06:03:50.498Z,3.00
2022-11-05T06:06:21.831Z,2.30
2022-11-05T06:08:50.108Z,2.70
2022-11-05T06:11:18.395Z,1.70
2022-11-05T06:13:46.681Z,2.00
2022-11-05T06:16:14.958Z,1.50
2022-11-05T06:18:43.230Z,1.60
2022-11-05T06:21:12.985Z,1.70
2022-11-05T06:23:42.706Z,1.10
2022-11-05T06:26:12.487Z,1.20
2022-11-05T06:28:42.306Z,1.10
2022-11-05T06:31:11.427Z,1.00
2022-11-05T06:33:40.037Z,1.30
2022-11-05T06:36:08.751Z,1.00
2022-11-05T06:38:37.060Z,0.80
2022-11-05T06:41:10.027Z,1.10
2022-11-05T06:43:39.287Z,1.00
2022-11-05T06:46:08.126Z,1.00
2022-11-05T06:48:36.506Z,1.10
2022-11-05T06:51:05.048Z,1.10
2022-11-05T06:53:33.277Z,0.80
2022-11-05T06:56:05.983Z,1.10
2022-11-05T06:58:34.683Z,0.90
2022-11-05T07:01:03.865Z,0.80
2022-11-05T07:03:32.203Z,1.00
2022-11-05T07:06:03.348Z,0.90
2022-11-05T07:08:33.091Z,0.80
2022-11-05T07:11:01.596Z,0.80
2022-11-05T07:13:30.062Z,0.80
2022-11-05T07:15:58.459Z,0.70
2022-11-05T07:18:26.914Z,0.90
2022-11-05T07:20:55.230Z,0.70
2022-11-05T07:23:23.570Z,0.70
2022-11-05T07:25:52.074Z,0.90
2022-11-05T07:28:20.397Z,0.80
2022-11-05T07:30:48.667Z,1.00
2022-11-05T07:33:17.078Z,1.20
2022-11-05T07:35:45.362Z,1.00
2022-11-05T07:38:13.733Z,1.10
2022-11-05T07:40:42.043Z,1.00
2022-11-05T07:43:10.741Z,1.20
2022-11-05T07:45:39.504Z,1.20
2022-11-05T07:48:07.897Z,1.20
2022-11-05T07:50:36.972Z,1.00
2022-11-05T07:53:12.371Z,1.10
2022-11-05T07:55:41.463Z,1.20
2022-11-05T07:58:10.284Z,1.30
2022-11-05T08:00:38.852Z,1.40
2022-11-05T08:03:10.473Z,1.20
2022-11-05T08:05:40.604Z,1.20
2022-11-05T08:08:09.755Z,1.20
2022-11-05T08:10:39.195Z,1.10
2022-11-05T08:13:08.567Z,1.00
2022-11-05T08:15:37.085Z,0.90
2022-11-05T08:18:07.060Z,1.00
2022-11-05T08:20:35.792Z,1.10
2022-11-05T08:23:04.516Z,2.30
2022-11-05T08:25:33.215Z,1.00
2022-11-05T08:28:02.923Z,1.10
2022-11-05T08:30:31.790Z,1.60
2022-11-05T08:33:04.642Z,1.10
2022-11-05T08:35:34.170Z,1.00
2022-11-05T08:38:04.081Z,1.40
2022-11-05T08:40:33.185Z,1.10
2022-11-05T08:43:03.612Z,0.90
2022-11-05T08:45:32.226Z,1.40
2022-11-05T08:48:01.211Z,1.00
2022-11-05T08:50:29.517Z,1.10
2022-11-05T08:52:57.990Z,1.30
2022-11-05T08:55:26.805Z,1.60
2022-11-05T08:57:55.988Z,1.20
2022-11-05T09:00:24.780Z,1.00
2022-11-05T09:02:53.117Z,1.50
2022-11-05T09:05:21.784Z,1.30
2022-11-05T09:07:50.012Z,1.30
2022-11-05T09:10:18.347Z,1.50
2022-11-05T09:12:46.623Z,2.20
2022-11-05T09:15:15.220Z,1.60
2022-11-05T09:17:43.519Z,1.30
2022-11-05T09:20:12.224Z,1.40
2022-11-05T09:22:43.307Z,1.70
2022-11-05T09:25:11.996Z,2.10
2022-11-05T09:27:40.213Z,1.50
2022-11-05T09:30:09.819Z,1.70
2022-11-05T09:32:38.118Z,1.70
2022-11-05T09:35:06.556Z,1.60
2022-11-05T09:37:35.594Z,1.80
2022-11-05T09:40:03.954Z,1.70
2022-11-05T09:42:36.132Z,1.90
2022-11-05T09:45:08.656Z,2.40
2022-11-05T09:47:39.874Z,1.90
2022-11-05T09:50:09.898Z,2.90
2022-11-05T09:52:38.688Z,2.70
2022-11-05T09:55:15.167Z,3.00
2022-11-05T09:57:50.212Z,3.30
2022-11-05T10:00:18.780Z,3.50
2022-11-05T10:02:49.965Z,4.70
2022-11-05T10:05:19.140Z,4.20
2022-11-05T10:07:51.522Z,4.00
2022-11-05T10:10:35.230Z,4.20
2022-11-05T10:13:22.283Z,4.70
2022-11-05T10:16:05.102Z,4.50
2022-11-05T10:18:33.649Z,5.00
2022-11-05T10:21:02.724Z,4.40
2022-11-05T10:23:31.409Z,4.50
2022-11-05T10:26:03.836Z,4.70
2022-11-05T10:28:33.325Z,4.70
2022-11-05T10:31:09.968Z,4.10
2022-11-05T10:33:46.165Z,4.90
2022-11-05T10:39:17.892Z,4.80
2022-11-05T10:41:53.032Z,4.20
2022-11-05T10:44:21.410Z,4.40
2022-11-05T10:47:07.111Z,4.30
2022-11-05T10:49:54.032Z,4.60
2022-11-05T10:52:24.291Z,4.40
2022-11-05T10:54:56.337Z,5.50
2022-11-05T10:57:32.287Z,4.70
2022-11-05T11:00:16.170Z,5.00
2022-11-05T11:03:00.902Z,4.70
2022-11-05T11:05:30.931Z,6.00
2022-11-05T11:08:05.283Z,5.70
2022-11-05T11:10:37.729Z,6.40
2022-11-05T11:13:06.915Z,5.20
2022-11-05T11:15:37.418Z,5.10
2022-11-05T11:54:34.667Z,7.30
2022-11-05T11:57:03.556Z,7.30
2022-11-05T12:00:01.816Z,7.00
2022-11-05T12:02:32.514Z,7.40
2022-11-05T13:43:33.974Z,5.00
2022-11-05T13:46:36.767Z,4.50
2022-11-05T13:49:48.481Z,5.30
2022-11-05T13:52:52.548Z,3.70
2022-11-05T13:55:56.739Z,4.10
2022-11-05T13:58:38.814Z,3.10
2022-11-05T14:01:26.464Z,2.90
2022-11-05T14:03:57.133Z,3.40
2022-11-05T14:06:36.086Z,3.50
2022-11-05T14:09:10.402Z,3.30
2022-11-05T14:11:43.028Z,3.40
2022-11-05T14:14:20.985Z,3.60
2022-11-05T14:35:15.954Z,3.40
2022-11-05T14:37:58.916Z,3.80
2022-11-05T14:40:37.005Z,5.70
2022-11-05T14:43:17.002Z,4.50
2022-11-05T14:45:56.251Z,4.00
2022-11-05T14:48:49.212Z,4.00
2022-11-05T14:51:38.342Z,3.40
2022-11-05T14:54:15.536Z,2.60
2022-11-05T14:56:58.253Z,2.50
2022-11-05T14:59:31.801Z,3.70
2022-11-05T15:02:17.018Z,3.70
2022-11-05T15:04:47.745Z,3.70
2022-11-05T15:07:37.895Z,4.30
2022-11-05T15:10:10.588Z,3.70
2022-11-05T15:12:47.910Z,4.20
2022-11-05T15:15:21.198Z,3.60
2022-11-05T15:18:28.453Z,5.70
2022-11-05T15:21:01.406Z,4.40
2022-11-05T15:23:43.005Z,3.30
2022-11-05T15:26:30.992Z,4.20
2022-11-05T15:29:01.215Z,3.30
2022-11-05T15:31:55.354Z,4.60
2022-11-05T15:34:25.379Z,4.50
2022-11-05T15:36:57.291Z,4.30
2022-11-05T15:39:40.241Z,4.50
2022-11-05T15:42:17.074Z,4.40
2022-11-05T15:44:48.780Z,5.40
2022-11-05T15:47:20.102Z,4.60
2022-11-05T15:49:52.432Z,5.50
2022-11-05T15:52:45.967Z,7.60
2022-11-05T15:55:17.510Z,7.50
2022-11-05T15:58:06.646Z,5.20
2022-11-05T16:00:37.024Z,5.20
2022-11-05T16:03:17.986Z,4.80
2022-11-05T16:05:48.737Z,5.10
2022-11-05T16:08:28.484Z,5.00
2022-11-05T16:10:59.353Z,4.80
2022-11-05T16:13:42.301Z,5.50
2022-11-05T16:16:16.572Z,5.30
2022-11-05T16:18:45.742Z,5.40
2022-11-05T16:21:20.382Z,4.60
2022-11-05T16:23:49.632Z,4.70
2022-11-05T16:29:30.759Z,5.30
2022-11-05T16:32:02.755Z,5.20
2022-11-05T16:34:41.045Z,6.10
2022-11-05T16:37:15.896Z,6.70
2022-11-05T16:39:47.415Z,9.00
2022-11-05T16:42:25.256Z,12.00
2022-11-05T16:55:14.248Z,46.80
2022-11-05T16:57:46.446Z,31.50
2022-11-05T17:00:19.136Z,28.90
2022-11-05T17:02:49.437Z,25.50
2022-11-05T17:05:25.777Z,20.40
2022-11-05T17:07:55.810Z,15.90
2022-11-05T17:10:26.471Z,12.80
2022-11-05T17:12:55.425Z,7.40
2022-11-05T17:15:34.371Z,6.30
2022-11-05T17:18:05.839Z,6.60
2022-11-05T17:20:43.910Z,6.70
2022-11-05T17:23:15.835Z,5.80
2022-11-05T17:25:51.352Z,7.50
2022-11-05T17:28:22.042Z,9.40
2022-11-05T17:30:53.267Z,10.40
2022-11-05T17:33:23.676Z,12.50
2022-11-05T17:35:56.557Z,15.80
2022-11-05T17:38:27.097Z,11.30
2022-11-05T17:40:58.376Z,13.70
2022-11-05T17:43:28.105Z,13.80
2022-11-05T17:46:03.095Z,13.90
2022-11-05T17:48:33.444Z,15.90
2022-11-05T17:51:02.966Z,12.80
2022-11-05T17:53:32.414Z,14.90
2022-11-05T17:56:01.773Z,13.70
2022-11-05T17:58:30.806Z,14.80
2022-11-05T18:00:59.542Z,15.90
2022-11-05T18:03:27.979Z,16.40
2022-11-05T18:06:07.733Z,14.80
2022-11-05T18:08:36.735Z,13.30
2022-11-05T18:11:05.320Z,13.50
2022-11-05T18:13:34.370Z,15.70
2022-11-05T18:16:03.570Z,16.20
2022-11-05T18:18:33.607Z,16.40
2022-11-05T18:21:02.502Z,14.90
2022-11-05T18:23:32.314Z,12.90
2022-11-05T18:26:02.641Z,14.40
2022-11-05T18:28:33.592Z,14.90
2022-11-05T18:31:02.410Z,19.90
2022-11-05T18:33:32.596Z,16.00
2022-11-05T18:36:03.033Z,17.80
2022-11-05T18:38:31.902Z,17.40
2022-11-05T18:41:07.119Z,16.30
2022-11-05T18:43:36.522Z,17.70
2022-11-05T18:46:06.955Z,15.80
2022-11-05T18:48:37.072Z,16.90
2022-11-05T18:51:11.561Z,19.00
2022-11-05T18:53:42.258Z,18.20
2022-11-05T18:56:16.354Z,18.20
2022-11-05T18:58:45.795Z,18.80
2022-11-05T19:01:21.191Z,19.40
2022-11-05T19:04:00.470Z,19.20
2022-11-05T19:06:29.617Z,19.60
2022-11-05T19:09:00.138Z,20.40
2022-11-05T19:11:29.635Z,21.00
2022-11-05T19:14:01.195Z,22.40
2022-11-05T19:16:31.861Z,22.80
2022-11-05T19:19:06.749Z,25.30
2022-11-05T19:21:36.210Z,38.30
2022-11-05T19:24:06.013Z,31.90
2022-11-05T19:26:35.398Z,38.70
2022-11-05T19:29:05.065Z,34.70
2022-11-05T19:31:34.418Z,30.20
2022-11-05T19:34:04.336Z,38.30
2022-11-05T19:36:34.875Z,38.40
2022-11-05T19:39:12.814Z,37.50
2022-11-05T19:41:42.114Z,38.60
2022-11-05T19:44:11.059Z,41.30
2022-11-05T19:46:41.418Z,44.60
2022-11-05T19:49:12.646Z,42.10
2022-11-05T19:51:42.224Z,50.10
2022-11-05T19:54:12.680Z,43.80
2022-11-05T19:56:43.027Z,47.40
2022-11-05T19:59:13.641Z,48.10
2022-11-05T20:01:43.194Z,53.40
2022-11-05T20:04:12.365Z,65.90
2022-11-05T20:06:41.915Z,54.40
2022-11-05T20:09:21.588Z,53.10
2022-11-05T20:11:58.024Z,42.80
2022-11-05T20:14:27.810Z,42.90
2022-11-05T20:17:01.667Z,52.30
2022-11-05T20:19:30.506Z,44.30
2022-11-05T20:22:01.548Z,48.00
2022-11-05T20:24:33.301Z,42.40
2022-11-05T20:27:02.835Z,40.70
2022-11-05T20:29:35.675Z,34.10
2022-11-05T20:32:23.670Z,35.40
2022-11-05T20:34:53.083Z,38.50
2022-11-05T20:37:23.483Z,38.60
2022-11-05T20:39:53.417Z,31.90
2022-11-05T20:42:26.702Z,31.30
2022-11-05T20:44:56.161Z,33.00
2022-11-05T20:47:25.936Z,34.90
2022-11-05T20:49:56.355Z,33.60
2022-11-05T20:52:27.820Z,33.50
2022-11-05T20:54:56.915Z,36.80
2022-11-05T20:57:26.526Z,34.90
2022-11-05T20:59:56.395Z,35.30
2022-11-05T21:02:25.499Z,34.10
2022-11-05T21:04:55.156Z,32.90
2022-11-05T21:07:25.594Z,31.90
2022-11-05T21:09:54.890Z,28.20
2022-11-05T21:12:23.998Z,30.00
2022-11-05T21:14:53.316Z,24.40
2022-11-05T21:17:22.499Z,24.80
2022-11-05T21:19:51.906Z,39.10
2022-11-05T21:22:21.210Z,23.30
2022-11-05T21:24:50.400Z,24.20
2022-11-05T21:27:20.754Z,20.90
2022-11-05T21:29:49.205Z,21.70
2022-11-05T21:32:18.134Z,22.00
2022-11-05T21:34:47.135Z,23.40
2022-11-05T21:37:16.186Z,22.40
2022-11-05T21:39:45.745Z,20.40
2022-11-05T21:42:14.387Z,20.90
2022-11-05T21:44:43.080Z,21.30
2022-11-05T21:47:12.127Z,20.90
2022-11-05T21:49:40.588Z,21.20
2022-11-05T21:52:31.609Z,23.10
2022-11-05T21:55:19.638Z,21.60
2022-11-05T21:58:08.078Z,21.50
2022-11-05T22:00:38.452Z,25.30
2022-11-05T22:03:06.691Z,22.20
2022-11-05T22:05:35.381Z,28.10
2022-11-05T22:08:04.270Z,27.70
2022-11-05T22:10:33.203Z,27.10
2022-11-05T22:13:02.491Z,27.90
2022-11-05T22:15:30.994Z,25.90
2022-11-05T22:17:59.356Z,22.90
2022-11-05T22:20:27.685Z,22.40
2022-11-05T22:22:56.027Z,20.10
2022-11-05T22:25:24.309Z,22.60
2022-11-05T22:27:52.762Z,21.60
2022-11-05T22:30:21.066Z,20.30
2022-11-05T22:33:14.255Z,22.70
2022-11-05T22:35:42.478Z,22.50
2022-11-05T22:38:13.178Z,24.90
2022-11-05T22:40:41.720Z,23.90
2022-11-05T22:43:10.101Z,24.10
2022-11-05T22:45:38.452Z,25.20
2022-11-05T22:48:08.028Z,22.70
2022-11-05T22:50:36.417Z,23.90
2022-11-05T22:53:04.708Z,24.50
2022-11-05T22:55:33.048Z,26.00
2022-11-05T22:58:01.347Z,25.10
2022-11-05T23:00:37.711Z,23.40
2022-11-05T23:03:06.136Z,23.40
2022-11-05T23:05:34.842Z,23.90
2022-11-05T23:08:22.052Z,22.70
2022-11-05T23:11:09.368Z,23.80
2022-11-05T23:13:37.706Z,22.80
2022-11-05T23:16:25.065Z,22.60
2022-11-05T23:19:12.306Z,22.70
2022-11-05T23:21:59.288Z,22.00
2022-11-05T23:24:27.677Z,23.10
2022-11-05T23:26:58.188Z,22.10
2022-11-05T23:29:27.906Z,20.30
2022-11-05T23:32:15.054Z,21.20
2022-11-05T23:34:43.428Z,21.50
2022-11-05T23:37:31.131Z,21.90
2022-11-05T23:39:59.614Z,22.10
2022-11-05T23:42:46.533Z,23.40
2022-11-05T23:45:33.497Z,23.40
2022-11-05T23:48:36.256Z,22.00
2022-11-05T23:51:10.505Z,22.40
2022-11-05T23:53:41.607Z,21.70
2022-11-05T23:56:15.446Z,20.00
